Troy, Idaho
Current Conditions -  °F | °C
As of 5:53 AM on Thursday 29 Jan 2015 (Local Time) from KPUW Reporting Station
Clear Clear  
Wind Chill: -2°   Ceiling: Unl
Heat Index:   Visibility: 10mi
Dew Point: -1°   Wind: 6mph
Humidity: 85%   Direction: 100°E
Pressure: 30.4"   Gusts: NA
Location:  46.74°N, 116.77°W
Report Text: KPUW 291353Z AUTO 10005KT 10SM CLR 01/M01 A3040 RMK AO2 SLP316 T00111011
Loading
Personal Weather Stations






























Interactive Weather Map New forecast layout! Learn more

10-Day Weather Forecast

Advertisements
Track Severe Weather on mobile